Time;durP1;ratioP1;P1;durP2;ratioP2;P2;SDS_P1;SDS_P2;PMS_P1;PMS_P2;Temp;Humidity;BMP_temperature;BMP_pressure;BME280_temperature;BME280_humidity;BME280_pressure;Samples;Min_cycle;Max_cycle;Signal;HPM_P1;HPM_P2
2023/12/10 00:01:24;;;;;;;445.65;125.47;;;-0.40;99.90;;;;;;5038165;28;20030;-52
2023/12/10 00:03:50;;;;;;;428.17;116.63;;;-0.20;99.90;;;;;;5038249;28;20025;-52
2023/12/10 00:06:16;;;;;;;392.13;112.88;;;-0.30;99.90;;;;;;5038032;28;20021;-52
2023/12/10 00:08:42;;;;;;;438.88;113.65;;;-0.30;99.90;;;;;;5038108;28;20444;-52
2023/12/10 00:11:08;;;;;;;440.45;121.40;;;-0.40;99.90;;;;;;5038353;28;20041;-52
2023/12/10 00:13:34;;;;;;;427.67;120.10;;;-0.30;99.90;;;;;;5038055;28;20034;-52
2023/12/10 00:16:00;;;;;;;355.77;109.40;;;-0.30;99.90;;;;;;5037996;28;20033;-52
2023/12/10 00:18:26;;;;;;;326.48;105.93;;;-0.30;99.90;;;;;;5037896;28;20044;-52
2023/12/10 00:20:51;;;;;;;305.77;97.80;;;-0.30;99.90;;;;;;5037840;28;20037;-52
2023/12/10 00:23:17;;;;;;;365.58;112.80;;;-0.30;99.90;;;;;;5037909;28;20022;-52
2023/12/10 00:25:45;;;;;;;294.38;99.55;;;-0.40;99.90;;;;;;5037997;28;20088;-52
2023/12/10 00:28:10;;;;;;;328.80;100.80;;;-0.50;99.90;;;;;;5037741;28;20030;-52
2023/12/10 00:30:40;;;;;;;288.27;96.53;;;-0.60;99.90;;;;;;5037607;28;20463;-52
2023/12/10 00:33:05;;;;;;;280.13;90.50;;;-0.70;99.90;;;;;;5037052;28;20494;-52
2023/12/10 00:35:31;;;;;;;253.63;88.88;;;-0.70;99.90;;;;;;5037617;28;20120;-51
2023/12/10 00:37:57;;;;;;;252.65;84.50;;;-0.80;99.90;;;;;;5037487;28;20083;-52
2023/12/10 00:40:23;;;;;;;308.70;95.00;;;-0.70;99.90;;;;;;5037538;28;20440;-52
2023/12/10 00:42:49;;;;;;;273.25;84.72;;;-0.80;99.90;;;;;;5037452;28;20414;-52
2023/12/10 00:45:15;;;;;;;289.17;92.30;;;-0.90;99.90;;;;;;5037539;28;20484;-52
2023/12/10 00:47:41;;;;;;;254.07;85.45;;;-0.90;99.90;;;;;;5037388;28;20124;-52
2023/12/10 00:50:07;;;;;;;324.27;102.00;;;-0.90;99.90;;;;;;5037266;28;20079;-52
2023/12/10 00:52:34;;;;;;;264.95;92.93;;;-1.00;99.90;;;;;;5037336;28;20036;-52
2023/12/10 00:54:59;;;;;;;258.30;83.43;;;-1.00;99.90;;;;;;5037339;28;20036;-52
2023/12/10 00:57:25;;;;;;;258.98;84.05;;;-0.90;99.90;;;;;;5037158;28;20030;-52
2023/12/10 00:59:51;;;;;;;242.68;80.82;;;-0.70;99.90;;;;;;5037123;28;20033;-52
2023/12/10 01:02:17;;;;;;;254.90;81.60;;;-0.60;99.90;;;;;;5037347;28;20029;-52
2023/12/10 01:04:43;;;;;;;242.43;83.18;;;-0.50;99.90;;;;;;5036983;28;20048;-52
2023/12/10 01:07:11;;;;;;;271.08;86.85;;;-0.60;99.90;;;;;;5037038;28;20065;-52
2023/12/10 01:09:38;;;;;;;253.20;84.03;;;-0.60;99.90;;;;;;5037271;28;20049;-52
2023/12/10 01:12:06;;;;;;;259.88;85.07;;;-0.50;99.90;;;;;;5036892;28;20030;-52
2023/12/10 01:14:32;;;;;;;246.77;86.30;;;-0.50;99.90;;;;;;5036900;28;20266;-52
2023/12/10 01:16:59;;;;;;;248.02;85.68;;;-0.60;99.90;;;;;;5036645;28;20345;-52
2023/12/10 01:19:27;;;;;;;256.70;87.60;;;-0.50;99.90;;;;;;5036835;28;20036;-52
2023/12/10 01:21:53;;;;;;;266.02;90.63;;;-0.40;99.90;;;;;;5036847;28;20505;-52
2023/12/10 01:24:20;;;;;;;258.45;85.97;;;-0.40;99.90;;;;;;5036750;28;20029;-52
2023/12/10 01:26:46;;;;;;;249.20;84.88;;;-0.40;99.90;;;;;;5036661;28;20109;-52
2023/12/10 01:29:12;;;;;;;270.45;92.10;;;-0.20;99.90;;;;;;5036643;28;20033;-52
2023/12/10 01:31:39;;;;;;;296.05;96.05;;;-0.20;99.90;;;;;;5036564;28;20530;-52
2023/12/10 01:34:05;;;;;;;280.50;93.38;;;-0.20;99.90;;;;;;5036641;28;20026;-52
2023/12/10 01:36:31;;;;;;;272.95;93.07;;;-0.20;99.90;;;;;;5036343;28;20490;-52
2023/12/10 01:38:56;;;;;;;252.73;86.72;;;-0.20;99.90;;;;;;5036443;28;20030;-52
2023/12/10 01:41:25;;;;;;;247.10;87.40;;;-0.20;99.90;;;;;;5036300;28;20026;-52
2023/12/10 01:43:52;;;;;;;267.65;88.20;;;-0.30;99.90;;;;;;5035395;28;20515;-52
2023/12/10 01:46:18;;;;;;;246.90;86.93;;;-0.50;99.90;;;;;;5036091;28;20021;-52
2023/12/10 01:48:45;;;;;;;291.02;93.03;;;-0.40;99.90;;;;;;5036375;28;20052;-52
2023/12/10 01:51:12;;;;;;;255.68;92.22;;;-0.60;99.90;;;;;;5036562;28;20033;-51
2023/12/10 01:53:40;;;;;;;275.55;93.82;;;-0.60;99.90;;;;;;5036228;28;20551;-51
2023/12/10 01:56:08;;;;;;;296.77;97.05;;;-0.60;99.90;;;;;;5036118;28;20407;-52
2023/12/10 01:58:35;;;;;;;312.58;98.35;;;-0.70;99.90;;;;;;5035945;28;20387;-52
2023/12/10 02:01:01;;;;;;;333.25;102.78;;;-0.70;99.90;;;;;;5035897;28;20480;-52
2023/12/10 02:03:31;;;;;;;282.15;94.65;;;-0.70;99.90;;;;;;5036096;28;20352;-51
2023/12/10 02:05:57;;;;;;;275.40;96.50;;;-0.70;99.90;;;;;;5036040;28;20021;-51
2023/12/10 02:08:23;;;;;;;312.05;95.72;;;-0.70;99.90;;;;;;5035944;28;20392;-52
2023/12/10 02:10:49;;;;;;;300.17;98.50;;;-0.70;99.90;;;;;;5035933;28;20018;-52
2023/12/10 02:13:17;;;;;;;262.05;88.93;;;-0.80;99.90;;;;;;5035615;28;20387;-52
2023/12/10 02:15:43;;;;;;;236.45;88.13;;;-0.80;99.90;;;;;;5036191;28;20029;-51
2023/12/10 02:18:09;;;;;;;230.60;84.95;;;-0.80;99.90;;;;;;5035658;28;20045;-52
2023/12/10 02:20:35;;;;;;;230.55;84.40;;;-0.90;99.90;;;;;;5035753;28;20410;-52
2023/12/10 02:23:24;;;;;;;230.93;84.82;;;-0.90;99.90;;;;;;5033374;28;20025;-52
2023/12/10 02:25:50;;;;;;;222.95;82.75;;;-0.90;99.90;;;;;;5035415;28;20466;-51
2023/12/10 02:28:22;;;;;;;222.70;80.95;;;-1.00;99.90;;;;;;5035489;28;20064;-51
2023/12/10 02:30:49;;;;;;;231.75;81.75;;;-1.10;99.90;;;;;;5035720;28;20535;-52
2023/12/10 02:33:15;;;;;;;220.90;78.72;;;-1.10;99.90;;;;;;5035069;28;20098;-51
2023/12/10 02:35:41;;;;;;;201.88;77.43;;;-1.30;99.90;;;;;;5035459;28;20081;-51
2023/12/10 02:38:07;;;;;;;222.52;80.95;;;-1.20;99.90;;;;;;5035174;28;20044;-52
2023/12/10 02:40:33;;;;;;;286.98;96.80;;;-1.00;99.90;;;;;;5035544;28;20048;-51
2023/12/10 02:43:00;;;;;;;304.50;101.68;;;-1.00;99.90;;;;;;5034898;28;20533;-52
2023/12/10 02:45:26;;;;;;;346.13;109.35;;;-1.00;99.90;;;;;;5035265;28;20025;-52
2023/12/10 02:47:52;;;;;;;336.15;109.18;;;-0.90;99.90;;;;;;5035257;28;20052;-51
2023/12/10 02:50:18;;;;;;;330.85;110.03;;;-0.80;99.90;;;;;;5035281;28;20104;-52
2023/12/10 02:52:43;;;;;;;311.98;107.60;;;-0.80;99.90;;;;;;5035231;28;20472;-52
2023/12/10 02:55:09;;;;;;;300.58;100.97;;;-0.80;99.90;;;;;;5036543;28;20029;-52
2023/12/10 02:57:35;;;;;;;278.95;99.45;;;-0.70;99.90;;;;;;5039509;28;20079;-52
2023/12/10 03:00:02;;;;;;;295.55;100.65;;;-0.60;99.90;;;;;;5039391;28;20052;-52
2023/12/10 03:02:28;;;;;;;258.60;93.53;;;-0.60;99.90;;;;;;5039382;28;20505;-52
2023/12/10 03:04:54;;;;;;;236.10;87.05;;;-0.50;99.90;;;;;;5039373;28;20021;-51
2023/12/10 03:07:20;;;;;;;233.13;85.25;;;-0.60;99.90;;;;;;5039226;28;20084;-52
2023/12/10 03:09:46;;;;;;;266.88;94.93;;;-0.70;99.90;;;;;;5039219;28;20041;-52
2023/12/10 03:12:12;;;;;;;264.15;94.43;;;-0.70;99.90;;;;;;5039231;28;20040;-52
2023/12/10 03:14:40;;;;;;;283.30;97.95;;;-0.70;99.90;;;;;;5039201;28;20025;-52
2023/12/10 03:17:05;;;;;;;260.13;92.18;;;-0.70;99.90;;;;;;5039018;28;20033;-52
2023/12/10 03:19:31;;;;;;;226.57;86.97;;;-0.80;99.90;;;;;;5039153;28;20152;-52
2023/12/10 03:21:57;;;;;;;190.27;76.13;;;-0.80;99.90;;;;;;5039072;28;20026;-52
2023/12/10 03:24:23;;;;;;;183.25;74.88;;;-0.70;99.90;;;;;;5038964;28;20029;-52
2023/12/10 03:26:49;;;;;;;192.20;77.20;;;-0.70;99.90;;;;;;5039070;28;20569;-52
2023/12/10 03:29:15;;;;;;;187.65;73.00;;;-0.90;99.90;;;;;;5038866;28;20029;-52
2023/12/10 03:31:40;;;;;;;190.52;75.43;;;-0.90;99.90;;;;;;5038889;28;20117;-51
2023/12/10 03:34:06;;;;;;;177.80;74.38;;;-0.70;99.90;;;;;;5038911;28;20387;-52
2023/12/10 03:36:32;;;;;;;193.95;77.10;;;-0.70;99.90;;;;;;5038332;28;20408;-52
2023/12/10 03:38:58;;;;;;;192.65;78.93;;;-0.60;99.90;;;;;;5038772;28;20037;-52
2023/12/10 03:41:24;;;;;;;188.82;75.22;;;-0.70;99.90;;;;;;5038656;28;20026;-52
2023/12/10 03:43:50;;;;;;;187.63;74.63;;;-0.70;99.90;;;;;;5038568;28;20155;-51
2023/12/10 03:46:16;;;;;;;186.25;74.75;;;-0.60;99.90;;;;;;5038979;28;20022;-52
2023/12/10 03:48:41;;;;;;;192.43;74.38;;;-0.80;99.90;;;;;;5038522;28;20029;-52
2023/12/10 03:51:07;;;;;;;193.40;73.93;;;-0.70;99.90;;;;;;5038358;28;20035;-52
2023/12/10 03:53:33;;;;;;;195.48;74.38;;;-0.70;99.90;;;;;;5038336;28;20034;-51
2023/12/10 03:55:59;;;;;;;211.27;75.35;;;-0.70;99.90;;;;;;5038434;28;20039;-52
2023/12/10 03:58:25;;;;;;;207.07;72.78;;;-0.70;99.90;;;;;;5038177;28;20026;-51
2023/12/10 04:00:51;;;;;;;221.38;78.20;;;-0.70;99.90;;;;;;5038287;28;20030;-51
2023/12/10 04:03:17;;;;;;;204.18;74.60;;;-0.70;99.90;;;;;;5038358;28;20097;-52
2023/12/10 04:05:43;;;;;;;215.43;75.00;;;-0.80;99.90;;;;;;5038113;28;20033;-52
2023/12/10 04:08:09;;;;;;;214.25;79.53;;;-0.70;99.90;;;;;;5037115;28;20095;-52
2023/12/10 04:10:34;;;;;;;202.80;74.00;;;-0.70;99.90;;;;;;5038080;28;20045;-51
2023/12/10 04:13:00;;;;;;;207.25;75.32;;;-0.70;99.90;;;;;;5038066;28;20033;-51
2023/12/10 04:15:27;;;;;;;214.45;74.93;;;-0.70;99.90;;;;;;5038076;28;20034;-52
2023/12/10 04:17:53;;;;;;;205.82;71.43;;;-0.90;99.90;;;;;;5037835;28;20033;-51
2023/12/10 04:20:19;;;;;;;204.70;77.28;;;-0.90;99.90;;;;;;5037904;28;20040;-52
2023/12/10 04:22:44;;;;;;;226.75;80.35;;;-1.00;99.90;;;;;;5037886;28;20076;-51
2023/12/10 04:25:10;;;;;;;215.65;78.65;;;-0.90;99.90;;;;;;5037739;28;20083;-52
2023/12/10 04:27:36;;;;;;;217.38;77.70;;;-0.80;99.90;;;;;;5037721;28;20033;-52
2023/12/10 04:30:02;;;;;;;213.25;79.13;;;-0.70;99.90;;;;;;5037768;28;20037;-51
2023/12/10 04:32:28;;;;;;;229.98;83.25;;;-0.60;99.90;;;;;;5037748;28;20033;-52
2023/12/10 04:34:54;;;;;;;235.63;83.82;;;-0.60;99.90;;;;;;5037631;28;20029;-52
2023/12/10 04:37:20;;;;;;;250.63;83.82;;;-0.60;99.90;;;;;;5037321;28;20151;-52
2023/12/10 04:39:46;;;;;;;250.13;85.43;;;-0.60;99.90;;;;;;5037582;28;20092;-52
2023/12/10 04:42:12;;;;;;;246.63;82.95;;;-0.60;99.90;;;;;;5037457;28;20021;-52
2023/12/10 04:44:38;;;;;;;262.65;85.25;;;-0.60;99.90;;;;;;5037426;28;20030;-52
2023/12/10 04:47:04;;;;;;;266.17;88.00;;;-0.50;99.90;;;;;;5037443;28;20109;-52
2023/12/10 04:49:29;;;;;;;272.50;91.03;;;-0.70;99.90;;;;;;5037417;28;20022;-51
2023/12/10 04:51:56;;;;;;;267.80;86.97;;;-0.60;99.90;;;;;;5037396;28;20084;-52
2023/12/10 04:54:21;;;;;;;278.92;92.20;;;-0.60;99.90;;;;;;5037333;28;20049;-52
2023/12/10 04:56:47;;;;;;;261.80;87.30;;;-0.60;99.90;;;;;;5037180;28;20052;-52
2023/12/10 04:59:13;;;;;;;287.17;91.15;;;-0.50;99.90;;;;;;5037192;28;20033;-51
2023/12/10 05:01:39;;;;;;;275.23;90.75;;;-0.50;99.90;;;;;;5037186;28;20471;-52
2023/12/10 05:04:05;;;;;;;289.35;92.57;;;-0.50;99.90;;;;;;5037104;28;20483;-52
2023/12/10 05:06:32;;;;;;;291.55;91.97;;;-0.50;99.90;;;;;;5037035;28;20021;-52
2023/12/10 05:08:58;;;;;;;306.88;93.15;;;-0.60;99.90;;;;;;5037024;28;20037;-52
2023/12/10 05:11:24;;;;;;;285.42;90.18;;;-0.80;99.90;;;;;;5035829;28;20021;-52
2023/12/10 05:13:50;;;;;;;292.77;90.22;;;-0.70;99.90;;;;;;5036939;28;20022;-52
2023/12/10 05:16:16;;;;;;;290.73;94.20;;;-0.60;99.90;;;;;;5036838;28;20033;-52
2023/12/10 05:18:42;;;;;;;276.92;91.38;;;-0.40;99.90;;;;;;5036493;28;20120;-51
2023/12/10 05:21:08;;;;;;;274.95;86.15;;;-0.30;99.90;;;;;;5036876;28;20060;-52
2023/12/10 05:23:34;;;;;;;267.83;89.53;;;-0.30;99.90;;;;;;5036818;28;20104;-51
2023/12/10 05:25:59;;;;;;;284.00;91.88;;;-0.20;99.90;;;;;;5036562;28;20029;-52
2023/12/10 05:28:25;;;;;;;279.23;91.30;;;-0.10;99.90;;;;;;5036876;28;20029;-52
2023/12/10 05:30:51;;;;;;;274.25;89.82;;;-0.10;99.90;;;;;;5036738;28;20037;-52
2023/12/10 05:33:17;;;;;;;266.27;90.15;;;0.00;99.90;;;;;;5036531;28;20025;-51
2023/12/10 05:35:43;;;;;;;262.88;85.25;;;0.00;99.90;;;;;;5036655;28;20092;-52
2023/12/10 05:38:09;;;;;;;244.45;83.72;;;0.10;99.90;;;;;;5036325;28;20045;-52
2023/12/10 05:40:35;;;;;;;242.50;87.53;;;0.20;99.90;;;;;;5036366;28;20383;-52
2023/12/10 05:43:01;;;;;;;264.80;89.50;;;0.20;99.90;;;;;;5036294;28;20472;-52
2023/12/10 05:45:28;;;;;;;239.40;81.82;;;0.20;99.90;;;;;;5036329;28;20049;-52
2023/12/10 05:47:55;;;;;;;251.25;83.55;;;0.30;99.90;;;;;;5036177;28;20047;-52
2023/12/10 05:50:21;;;;;;;240.70;82.55;;;0.30;99.90;;;;;;5036327;28;20060;-51
2023/12/10 05:52:46;;;;;;;244.85;82.85;;;0.20;99.90;;;;;;5036177;28;20479;-52
2023/12/10 05:55:12;;;;;;;240.00;81.65;;;0.20;99.90;;;;;;5036177;28;20028;-52
2023/12/10 05:57:38;;;;;;;226.30;82.25;;;0.30;99.90;;;;;;5036020;28;20035;-52
2023/12/10 06:00:06;;;;;;;251.32;84.80;;;0.30;99.90;;;;;;5036096;28;20021;-52
2023/12/10 06:02:32;;;;;;;238.10;85.50;;;0.30;99.90;;;;;;5036018;28;20076;-52
2023/12/10 06:04:58;;;;;;;224.05;81.43;;;0.40;99.90;;;;;;5036035;28;20026;-52
2023/12/10 06:07:24;;;;;;;250.65;85.93;;;0.40;99.90;;;;;;5035796;28;20421;-52
2023/12/10 06:09:50;;;;;;;230.68;85.13;;;0.40;99.90;;;;;;5035850;28;20052;-51
2023/12/10 06:12:16;;;;;;;240.18;85.88;;;0.40;99.90;;;;;;5035879;28;20030;-52
2023/12/10 06:14:42;;;;;;;246.15;81.32;;;0.30;99.90;;;;;;5035925;28;20372;-52
2023/12/10 06:17:09;;;;;;;231.18;81.20;;;0.30;99.90;;;;;;5035702;28;20025;-52
2023/12/10 06:19:35;;;;;;;235.05;86.43;;;0.30;99.90;;;;;;5035728;28;20068;-52
2023/12/10 06:22:02;;;;;;;226.07;85.57;;;0.40;99.90;;;;;;5035704;28;20075;-52
2023/12/10 06:24:28;;;;;;;236.65;84.05;;;0.40;99.90;;;;;;5035606;28;20021;-52
2023/12/10 06:26:54;;;;;;;245.35;87.38;;;0.40;99.90;;;;;;5035632;28;20278;-52
2023/12/10 06:29:20;;;;;;;235.98;83.63;;;0.50;99.90;;;;;;5035092;28;20376;-52
2023/12/10 06:31:46;;;;;;;257.52;93.53;;;0.50;99.90;;;;;;5035484;28;20530;-51
2023/12/10 06:34:11;;;;;;;237.32;85.07;;;0.50;99.90;;;;;;5035694;28;20048;-52
2023/12/10 06:36:37;;;;;;;229.82;83.85;;;0.40;99.90;;;;;;5035369;28;20041;-52
2023/12/10 06:39:03;;;;;;;224.43;79.28;;;0.50;99.90;;;;;;5035547;28;20041;-52
2023/12/10 06:41:29;;;;;;;230.85;85.95;;;0.60;99.90;;;;;;5035439;28;20033;-52
2023/12/10 06:43:55;;;;;;;234.50;83.95;;;0.60;99.90;;;;;;5035306;28;20025;-52
2023/12/10 06:46:21;;;;;;;239.50;88.53;;;0.80;99.90;;;;;;5035409;28;20117;-52
2023/12/10 06:48:46;;;;;;;227.35;87.20;;;0.80;99.90;;;;;;5035367;28;20092;-52
2023/12/10 06:51:12;;;;;;;223.38;87.30;;;0.80;99.90;;;;;;5035361;28;20123;-52
2023/12/10 06:53:40;;;;;;;214.45;83.10;;;0.60;99.90;;;;;;5035242;28;20048;-52
2023/12/10 06:56:08;;;;;;;228.38;89.45;;;0.70;99.90;;;;;;5035371;28;20053;-52
2023/12/10 06:58:34;;;;;;;229.93;89.22;;;0.70;99.90;;;;;;5035212;28;20034;-52
2023/12/10 07:01:01;;;;;;;217.10;89.90;;;0.70;99.90;;;;;;5035374;28;20025;-52
2023/12/10 07:03:27;;;;;;;215.50;87.80;;;0.80;99.90;;;;;;5035183;28;20025;-52
2023/12/10 07:05:53;;;;;;;234.30;94.03;;;0.90;99.90;;;;;;5035444;28;20025;-52
2023/12/10 07:08:19;;;;;;;218.60;91.05;;;1.00;99.90;;;;;;5035109;28;20369;-52
2023/12/10 07:10:44;;;;;;;224.15;90.15;;;1.10;99.90;;;;;;5035171;28;20029;-52
2023/12/10 07:13:10;;;;;;;262.27;100.90;;;1.10;99.90;;;;;;5035059;28;20480;-52
2023/12/10 07:15:36;;;;;;;290.65;115.28;;;1.10;99.90;;;;;;5035410;28;20036;-52
2023/12/10 07:18:02;;;;;;;270.35;106.38;;;1.20;99.90;;;;;;5034936;28;20204;-52
2023/12/10 07:20:28;;;;;;;233.68;96.00;;;1.20;99.90;;;;;;5035042;28;20472;-52
2023/12/10 07:22:54;;;;;;;232.52;91.70;;;1.20;99.90;;;;;;5035134;28;20025;-52
2023/12/10 07:25:20;;;;;;;222.85;90.68;;;1.30;99.90;;;;;;5035081;28;20089;-52
2023/12/10 07:27:47;;;;;;;215.82;85.43;;;1.30;99.90;;;;;;5034953;28;20375;-52
2023/12/10 07:30:13;;;;;;;219.13;85.20;;;1.40;99.90;;;;;;5034994;28;20033;-52
2023/12/10 07:32:39;;;;;;;226.38;89.10;;;1.20;99.90;;;;;;5035021;28;20044;-52
2023/12/10 07:35:05;;;;;;;249.35;97.90;;;1.30;99.90;;;;;;5035022;28;20029;-52
2023/12/10 07:37:31;;;;;;;213.82;90.35;;;1.30;99.90;;;;;;5034556;28;20045;-52
2023/12/10 07:39:58;;;;;;;201.85;84.07;;;1.40;99.90;;;;;;5034840;28;20087;-52
2023/12/10 07:42:24;;;;;;;197.25;84.55;;;1.30;99.90;;;;;;5037930;28;20033;-52
2023/12/10 07:44:49;;;;;;;212.98;85.35;;;1.30;99.90;;;;;;5038697;28;20026;-52
2023/12/10 07:47:15;;;;;;;203.15;85.95;;;1.30;99.90;;;;;;5038532;28;20029;-52
2023/12/10 07:49:42;;;;;;;209.15;85.10;;;1.20;99.90;;;;;;5038512;28;20083;-52
2023/12/10 07:52:08;;;;;;;201.73;86.90;;;1.30;99.90;;;;;;5038516;28;20551;-52
2023/12/10 07:54:34;;;;;;;207.45;88.10;;;1.40;99.90;;;;;;5038506;28;20108;-52
2023/12/10 07:56:59;;;;;;;209.23;88.35;;;1.40;99.90;;;;;;5038368;28;20022;-52
2023/12/10 07:59:25;;;;;;;221.30;92.18;;;1.40;99.90;;;;;;5038399;28;20117;-52
2023/12/10 08:01:51;;;;;;;222.50;91.47;;;1.40;99.90;;;;;;5038468;28;20036;-52
2023/12/10 08:04:17;;;;;;;212.15;91.95;;;1.60;99.90;;;;;;5038250;28;20025;-52
2023/12/10 08:06:43;;;;;;;216.32;91.30;;;1.60;99.90;;;;;;5038134;28;20034;-52
2023/12/10 08:09:09;;;;;;;207.95;88.60;;;1.70;99.90;;;;;;5038226;28;20437;-52
2023/12/10 08:11:36;;;;;;;208.65;90.68;;;1.60;99.90;;;;;;5038005;28;20530;-52
2023/12/10 08:14:02;;;;;;;209.38;92.38;;;1.60;99.90;;;;;;5038157;28;20030;-52
2023/12/10 08:16:28;;;;;;;217.10;91.22;;;1.60;99.90;;;;;;5037811;28;20025;-52
2023/12/10 08:18:53;;;;;;;206.88;86.35;;;1.60;99.90;;;;;;5038125;28;20426;-52
2023/12/10 08:21:19;;;;;;;209.73;89.70;;;1.60;99.90;;;;;;5038256;28;20041;-52
2023/12/10 08:23:45;;;;;;;197.13;86.80;;;1.70;99.90;;;;;;5037966;28;20096;-52
2023/12/10 08:26:11;;;;;;;188.27;84.03;;;1.80;99.90;;;;;;5037578;28;20467;-52
2023/12/10 08:28:37;;;;;;;203.82;90.10;;;1.80;99.90;;;;;;5037924;28;20065;-52
2023/12/10 08:31:03;;;;;;;203.32;88.13;;;1.80;99.90;;;;;;5038080;28;20439;-52
2023/12/10 08:33:29;;;;;;;209.95;91.10;;;1.90;99.90;;;;;;5037615;28;20089;-52
2023/12/10 08:35:55;;;;;;;194.07;88.38;;;1.90;99.90;;;;;;5037723;28;20038;-52
2023/12/10 08:38:21;;;;;;;213.18;93.70;;;1.90;99.90;;;;;;5037234;28;20083;-52
2023/12/10 08:40:47;;;;;;;205.02;91.88;;;1.80;99.90;;;;;;5037444;28;20468;-52
2023/12/10 08:43:13;;;;;;;224.35;94.80;;;1.90;99.90;;;;;;5037497;28;20036;-52
2023/12/10 08:45:39;;;;;;;216.25;93.82;;;1.90;99.90;;;;;;5037417;28;20026;-52
2023/12/10 08:48:05;;;;;;;208.38;92.95;;;1.80;99.90;;;;;;5037288;28;20030;-52
2023/12/10 08:50:31;;;;;;;206.43;93.50;;;1.90;99.90;;;;;;5037493;28;20033;-52
2023/12/10 08:52:57;;;;;;;209.20;91.72;;;1.80;99.90;;;;;;5036867;28;20036;-52
2023/12/10 08:55:22;;;;;;;238.02;101.50;;;1.90;99.90;;;;;;5037336;28;20120;-52
2023/12/10 08:57:48;;;;;;;213.82;94.03;;;1.90;99.90;;;;;;5037198;28;20033;-52
2023/12/10 09:00:15;;;;;;;230.93;97.40;;;1.90;99.90;;;;;;5037487;28;20541;-52
2023/12/10 09:02:41;;;;;;;227.75;99.25;;;1.80;99.90;;;;;;5037069;28;20395;-52
2023/12/10 09:05:07;;;;;;;223.93;99.65;;;1.80;99.90;;;;;;5037417;28;20375;-52
2023/12/10 09:07:33;;;;;;;229.85;103.85;;;1.90;99.90;;;;;;5052419;28;20044;-52
2023/12/10 09:09:59;;;;;;;228.75;99.40;;;1.90;99.90;;;;;;5037059;28;20021;-54
2023/12/10 09:12:28;;;;;;;224.60;102.05;;;2.00;99.90;;;;;;5037077;28;20033;-54
2023/12/10 09:14:54;;;;;;;247.38;108.82;;;2.10;99.90;;;;;;5036955;28;20037;-54
2023/12/10 09:17:21;;;;;;;237.88;103.72;;;2.00;99.90;;;;;;5036739;28;20021;-54
2023/12/10 09:19:47;;;;;;;235.23;103.65;;;2.10;99.90;;;;;;5036853;28;20041;-54
2023/12/10 09:22:13;;;;;;;238.10;105.05;;;2.10;99.90;;;;;;5037072;28;20039;-52
2023/12/10 09:24:39;;;;;;;239.75;105.20;;;2.20;99.90;;;;;;5036709;28;20129;-52
2023/12/10 09:27:06;;;;;;;244.27;107.28;;;2.20;99.90;;;;;;5036683;28;20044;-52
2023/12/10 09:29:38;;;;;;;238.13;108.10;;;2.10;99.90;;;;;;5036755;28;20510;-52
2023/12/10 09:32:11;;;;;;;243.43;105.80;;;2.20;99.90;;;;;;5036800;28;20037;-52
2023/12/10 09:34:38;;;;;;;259.88;111.05;;;2.10;99.90;;;;;;5036597;28;20037;-52
2023/12/10 09:37:04;;;;;;;231.38;102.47;;;2.00;99.90;;;;;;5036340;28;20064;-52
2023/12/10 09:39:31;;;;;;;239.80;101.97;;;1.90;99.90;;;;;;5036476;28;20025;-52
2023/12/10 09:41:57;;;;;;;238.52;107.32;;;1.90;99.90;;;;;;5036492;28;20030;-52
2023/12/10 09:44:23;;;;;;;254.68;112.60;;;2.00;99.90;;;;;;5036316;28;20124;-52
2023/12/10 09:46:49;;;;;;;254.32;108.78;;;2.00;99.90;;;;;;5036539;28;20029;-52
2023/12/10 09:49:15;;;;;;;244.60;108.10;;;2.00;99.90;;;;;;5036400;28;20030;-52
2023/12/10 09:51:41;;;;;;;244.77;108.13;;;2.10;99.90;;;;;;5036156;28;20091;-52
2023/12/10 09:54:07;;;;;;;238.80;105.25;;;2.10;99.90;;;;;;5036265;28;20037;-52
2023/12/10 09:56:33;;;;;;;246.45;110.35;;;2.10;99.90;;;;;;5036180;28;20037;-52
2023/12/10 09:58:59;;;;;;;243.13;107.60;;;2.00;99.90;;;;;;5036058;28;20033;-52
2023/12/10 10:01:25;;;;;;;262.92;111.95;;;2.00;99.90;;;;;;5036091;28;20033;-52
2023/12/10 10:03:51;;;;;;;231.65;101.60;;;2.10;99.90;;;;;;5035834;28;20030;-52
2023/12/10 10:06:17;;;;;;;227.60;106.00;;;2.10;99.90;;;;;;5035437;28;20296;-52
2023/12/10 10:08:42;;;;;;;220.70;98.43;;;2.10;99.90;;;;;;5036061;28;20304;-52
2023/12/10 10:11:08;;;;;;;215.60;101.07;;;2.10;99.90;;;;;;5035965;28;20034;-52
2023/12/10 10:13:34;;;;;;;237.40;107.45;;;2.20;99.90;;;;;;5035782;28;20026;-52
2023/12/10 10:16:10;;;;;;;216.30;103.20;;;2.30;99.90;;;;;;5035859;28;20025;-52
2023/12/10 10:18:41;;;;;;;244.13;110.53;;;2.40;99.90;;;;;;5035678;28;20028;-52
2023/12/10 10:21:07;;;;;;;;;;;2.40;99.90;;;;;;5036323;28;20032;-52
2023/12/10 10:23:33;;;;;;;248.02;112.55;;;2.30;99.90;;;;;;5035734;28;19909;-52
2023/12/10 10:25:59;;;;;;;251.20;115.07;;;2.40;99.90;;;;;;5035904;28;20033;-52
2023/12/10 10:28:27;;;;;;;253.50;113.97;;;2.40;99.90;;;;;;5035628;28;20383;-52
2023/12/10 10:30:55;;;;;;;269.30;117.72;;;2.40;99.90;;;;;;5035903;28;20136;-52
2023/12/10 10:33:23;;;;;;;297.35;130.95;;;2.40;99.90;;;;;;5035527;28;20033;-52
2023/12/10 10:35:52;;;;;;;344.80;153.38;;;2.30;99.90;;;;;;5035442;28;23134;-52
2023/12/10 10:38:20;;;;;;;290.02;131.77;;;2.30;99.90;;;;;;5035292;28;20033;-52
2023/12/10 10:40:47;;;;;;;246.40;112.53;;;2.30;99.90;;;;;;5035393;28;20423;-52
2023/12/10 10:43:14;;;;;;;246.73;111.65;;;2.20;99.90;;;;;;5035407;28;20092;-54
2023/12/10 10:45:40;;;;;;;271.42;122.07;;;2.20;99.90;;;;;;5035584;28;20026;-54
2023/12/10 10:48:06;;;;;;;299.63;129.15;;;2.30;99.90;;;;;;5035391;28;20460;-52
2023/12/10 10:50:37;;;;;;;274.77;120.25;;;2.20;99.90;;;;;;5035436;28;20109;-52
2023/12/10 10:53:03;;;;;;;296.25;126.38;;;2.30;99.90;;;;;;5035214;28;20035;-52
2023/12/10 10:55:32;;;;;;;361.67;142.63;;;2.20;99.90;;;;;;5035408;28;20030;-52
2023/12/10 10:57:58;;;;;;;386.23;155.68;;;2.20;99.90;;;;;;5035129;28;20026;-52
2023/12/10 11:00:33;;;;;;;435.08;165.82;;;2.10;99.90;;;;;;5035232;28;20028;-52
2023/12/10 11:03:03;;;;;;;461.80;169.43;;;2.20;99.90;;;;;;5035228;28;20108;-52
2023/12/10 11:05:36;;;;;;;462.93;171.70;;;2.30;99.90;;;;;;5035090;28;20541;-52
2023/12/10 11:08:06;;;;;;;455.98;168.43;;;2.40;99.90;;;;;;5035299;28;20060;-52
2023/12/10 11:10:34;;;;;;;474.52;171.23;;;2.60;99.90;;;;;;5035296;28;20030;-52
2023/12/10 11:13:00;;;;;;;474.85;174.35;;;2.60;99.90;;;;;;5035205;28;20079;-52
2023/12/10 11:15:28;;;;;;;472.27;181.70;;;2.70;99.90;;;;;;5035165;28;20026;-52
2023/12/10 11:17:59;;;;;;;460.33;172.32;;;2.90;99.90;;;;;;5038984;28;20021;-52
2023/12/10 11:20:38;;;;;;;470.10;172.70;;;2.90;99.90;;;;;;5039193;28;20017;-52
2023/12/10 11:23:09;;;;;;;440.80;151.27;;;2.90;99.90;;;;;;5039004;28;20059;-52
2023/12/10 11:25:35;;;;;;;;;;;2.90;99.90;;;;;;5039367;28;20033;-52
2023/12/10 11:28:14;;;;;;;384.60;140.20;;;3.00;99.90;;;;;;5038955;28;20326;-52
2023/12/10 11:30:42;;;;;;;395.98;142.68;;;3.10;99.90;;;;;;5038948;28;20381;-52
2023/12/10 11:33:09;;;;;;;435.17;154.73;;;3.10;99.90;;;;;;5038937;28;20049;-52
2023/12/10 11:35:35;;;;;;;425.48;151.85;;;3.20;99.90;;;;;;5038747;28;20045;-52
2023/12/10 11:38:02;;;;;;;427.58;156.00;;;3.10;99.90;;;;;;5038494;28;20045;-52
2023/12/10 11:40:29;;;;;;;466.92;156.05;;;3.30;99.90;;;;;;5038743;28;20117;-52
2023/12/10 11:43:02;;;;;;;503.42;174.40;;;3.30;99.90;;;;;;5038651;28;20071;-52
2023/12/10 11:45:28;;;;;;;515.17;180.85;;;3.40;99.90;;;;;;5038616;28;20417;-52
2023/12/10 11:47:55;;;;;;;516.08;177.73;;;3.20;99.90;;;;;;5038795;28;20109;-52
2023/12/10 11:50:21;;;;;;;533.38;185.27;;;3.20;99.90;;;;;;5038557;28;20033;-52
2023/12/10 11:52:47;;;;;;;521.58;183.23;;;3.30;99.90;;;;;;5038538;28;20025;-52
2023/12/10 11:55:13;;;;;;;495.17;181.95;;;3.30;99.90;;;;;;5038452;28;20509;-52
2023/12/10 11:57:45;;;;;;;581.70;205.38;;;3.40;99.90;;;;;;5038366;28;20542;-52
2023/12/10 12:00:12;;;;;;;531.78;192.52;;;3.30;99.90;;;;;;5038242;28;20026;-52
2023/12/10 12:02:43;;;;;;;652.47;229.98;;;3.40;99.90;;;;;;5038069;28;20021;-52
2023/12/10 12:05:10;;;;;;;625.35;222.60;;;3.40;99.90;;;;;;5038196;28;20440;-53
2023/12/10 12:07:37;;;;;;;592.78;211.88;;;3.40;99.90;;;;;;5038213;28;20454;-53
2023/12/10 12:10:05;;;;;;;709.20;252.80;;;3.60;99.90;;;;;;5038397;28;20045;-53
2023/12/10 12:12:35;;;;;;;706.35;248.68;;;3.50;99.90;;;;;;5037966;28;20028;-53
2023/12/10 12:15:02;;;;;;;669.10;239.73;;;3.60;99.90;;;;;;5038100;28;20082;-53
2023/12/10 12:17:29;;;;;;;657.65;237.35;;;3.70;99.90;;;;;;5037747;28;20079;-53